Wing, Alabama
Current Conditions -  °F | °C
As of 9:58 PM on Thursday 27 Nov 2014 (Local Time) from K0J4 Reporting Station
Clear Clear  
Wind Chill: 41°   Ceiling: Unl
Heat Index: 41°   Visibility: 10mi
Dew Point: 31°   Wind: 0mph
Humidity: 67%   Direction: NA
Pressure: 30.45"   Gusts: NA
Location:  31.03°N, 86.61°W
Report Text: K0J4 280358Z AUTO 00000KT 10SM CLR 05/M01 A3045 RMK AO2 SLP310 T00501006 $
Loading
Personal Weather Stations






























Interactive Weather Map New forecast layout! Learn more

10-Day Weather Forecast

Advertisements
Track Severe Weather on mobile